sensor_id;sensor_type;location;lat;lon;timestamp;temperature;humidity
1461;DHT22;724;49.910;12.530;2023-06-14T00:00:16;10.60;99.90
1461;DHT22;724;49.910;12.530;2023-06-14T00:02:43;10.60;99.90
1461;DHT22;724;49.910;12.530;2023-06-14T00:05:10;10.60;99.90
1461;DHT22;724;49.910;12.530;2023-06-14T00:07:39;10.50;99.90
1461;DHT22;724;49.910;12.530;2023-06-14T00:10:09;10.50;99.90
1461;DHT22;724;49.910;12.530;2023-06-14T00:12:38;10.50;99.90
1461;DHT22;724;49.910;12.530;2023-06-14T00:15:06;10.50;99.90
1461;DHT22;724;49.910;12.530;2023-06-14T00:17:35;10.50;99.90
1461;DHT22;724;49.910;12.530;2023-06-14T00:20:03;10.50;99.90
1461;DHT22;724;49.910;12.530;2023-06-14T00:22:31;10.30;99.90
1461;DHT22;724;49.910;12.530;2023-06-14T00:24:58;10.20;99.90
1461;DHT22;724;49.910;12.530;2023-06-14T00:27:25;10.20;99.90
1461;DHT22;724;49.910;12.530;2023-06-14T00:29:53;10.10;99.90
1461;DHT22;724;49.910;12.530;2023-06-14T00:32:20;10.00;99.90
1461;DHT22;724;49.910;12.530;2023-06-14T00:34:51;9.90;99.90
1461;DHT22;724;49.910;12.530;2023-06-14T00:37:17;9.90;99.90
1461;DHT22;724;49.910;12.530;2023-06-14T00:39:44;9.90;99.90
1461;DHT22;724;49.910;12.530;2023-06-14T00:42:11;9.90;99.90
1461;DHT22;724;49.910;12.530;2023-06-14T00:44:50;10.00;99.90
1461;DHT22;724;49.910;12.530;2023-06-14T00:47:18;10.10;99.90
1461;DHT22;724;49.910;12.530;2023-06-14T00:49:46;10.10;99.90
1461;DHT22;724;49.910;12.530;2023-06-14T00:52:13;10.20;99.90
1461;DHT22;724;49.910;12.530;2023-06-14T00:54:40;10.20;99.90
1461;DHT22;724;49.910;12.530;2023-06-14T00:57:07;10.20;99.90
1461;DHT22;724;49.910;12.530;2023-06-14T00:59:35;10.30;99.90
1461;DHT22;724;49.910;12.530;2023-06-14T01:02:05;10.10;99.90
1461;DHT22;724;49.910;12.530;2023-06-14T01:04:33;10.10;99.90
1461;DHT22;724;49.910;12.530;2023-06-14T01:07:07;9.90;99.90
1461;DHT22;724;49.910;12.530;2023-06-14T01:09:47;9.70;99.90
1461;DHT22;724;49.910;12.530;2023-06-14T01:12:19;9.80;99.90
1461;DHT22;724;49.910;12.530;2023-06-14T01:14:48;9.90;99.90
1461;DHT22;724;49.910;12.530;2023-06-14T01:17:16;10.00;99.90
1461;DHT22;724;49.910;12.530;2023-06-14T01:19:45;10.10;99.90
1461;DHT22;724;49.910;12.530;2023-06-14T01:22:13;10.10;99.90
1461;DHT22;724;49.910;12.530;2023-06-14T01:24:41;10.10;1.00
1461;DHT22;724;49.910;12.530;2023-06-14T01:27:11;10.20;1.00
1461;DHT22;724;49.910;12.530;2023-06-14T01:29:38;10.10;1.00
1461;DHT22;724;49.910;12.530;2023-06-14T01:32:11;10.10;1.00
1461;DHT22;724;49.910;12.530;2023-06-14T01:34:39;10.10;1.00
1461;DHT22;724;49.910;12.530;2023-06-14T01:37:06;10.20;1.00
1461;DHT22;724;49.910;12.530;2023-06-14T01:39:34;10.10;1.00
1461;DHT22;724;49.910;12.530;2023-06-14T01:42:02;10.10;1.00
1461;DHT22;724;49.910;12.530;2023-06-14T01:44:30;9.90;1.00
1461;DHT22;724;49.910;12.530;2023-06-14T01:46:58;10.00;1.00
1461;DHT22;724;49.910;12.530;2023-06-14T01:49:26;9.90;1.00
1461;DHT22;724;49.910;12.530;2023-06-14T01:51:52;9.90;1.00
1461;DHT22;724;49.910;12.530;2023-06-14T01:54:19;9.80;94.70
1461;DHT22;724;49.910;12.530;2023-06-14T01:56:47;9.80;99.90
1461;DHT22;724;49.910;12.530;2023-06-14T01:59:15;9.80;99.90
1461;DHT22;724;49.910;12.530;2023-06-14T02:01:42;9.80;99.90
1461;DHT22;724;49.910;12.530;2023-06-14T02:04:09;9.70;99.90
1461;DHT22;724;49.910;12.530;2023-06-14T02:06:36;9.70;1.00
1461;DHT22;724;49.910;12.530;2023-06-14T02:09:03;9.60;1.00
1461;DHT22;724;49.910;12.530;2023-06-14T02:11:30;9.60;1.00
1461;DHT22;724;49.910;12.530;2023-06-14T02:13:56;9.60;1.00
1461;DHT22;724;49.910;12.530;2023-06-14T02:16:26;9.50;1.00
1461;DHT22;724;49.910;12.530;2023-06-14T02:18:55;9.50;1.00
1461;DHT22;724;49.910;12.530;2023-06-14T02:21:22;9.40;1.00
1461;DHT22;724;49.910;12.530;2023-06-14T02:23:49;9.50;1.00
1461;DHT22;724;49.910;12.530;2023-06-14T02:26:16;9.60;1.00
1461;DHT22;724;49.910;12.530;2023-06-14T02:28:42;9.50;1.00
1461;DHT22;724;49.910;12.530;2023-06-14T02:31:09;9.50;1.00
1461;DHT22;724;49.910;12.530;2023-06-14T02:33:37;9.60;1.00
1461;DHT22;724;49.910;12.530;2023-06-14T02:36:05;9.70;99.90
1461;DHT22;724;49.910;12.530;2023-06-14T02:38:32;9.70;99.90
1461;DHT22;724;49.910;12.530;2023-06-14T02:40:59;9.60;99.90
1461;DHT22;724;49.910;12.530;2023-06-14T02:43:29;9.50;99.90
1461;DHT22;724;49.910;12.530;2023-06-14T02:45:56;9.50;1.00
1461;DHT22;724;49.910;12.530;2023-06-14T02:48:22;9.50;1.00
1461;DHT22;724;49.910;12.530;2023-06-14T02:50:51;9.50;1.00
1461;DHT22;724;49.910;12.530;2023-06-14T02:53:17;9.50;1.00
1461;DHT22;724;49.910;12.530;2023-06-14T02:55:44;9.40;1.00
1461;DHT22;724;49.910;12.530;2023-06-14T02:58:12;9.40;1.00
1461;DHT22;724;49.910;12.530;2023-06-14T03:00:39;9.50;1.00
1461;DHT22;724;49.910;12.530;2023-06-14T03:03:06;9.40;1.00
1461;DHT22;724;49.910;12.530;2023-06-14T03:05:40;9.30;1.00
1461;DHT22;724;49.910;12.530;2023-06-14T03:08:12;9.20;1.00
1461;DHT22;724;49.910;12.530;2023-06-14T03:10:42;9.20;99.90
1461;DHT22;724;49.910;12.530;2023-06-14T03:13:09;9.20;99.90
1461;DHT22;724;49.910;12.530;2023-06-14T03:15:36;9.20;99.90
1461;DHT22;724;49.910;12.530;2023-06-14T03:18:04;9.10;99.90
1461;DHT22;724;49.910;12.530;2023-06-14T03:20:31;9.00;99.90
1461;DHT22;724;49.910;12.530;2023-06-14T03:22:59;8.80;99.90
1461;DHT22;724;49.910;12.530;2023-06-14T03:25:27;8.80;99.90
1461;DHT22;724;49.910;12.530;2023-06-14T03:27:55;8.60;99.90
1461;DHT22;724;49.910;12.530;2023-06-14T03:30:22;8.60;99.90
1461;DHT22;724;49.910;12.530;2023-06-14T03:32:49;8.60;99.90
1461;DHT22;724;49.910;12.530;2023-06-14T03:35:17;8.50;99.90
1461;DHT22;724;49.910;12.530;2023-06-14T03:37:45;8.50;99.90
1461;DHT22;724;49.910;12.530;2023-06-14T03:40:13;8.60;99.90
1461;DHT22;724;49.910;12.530;2023-06-14T03:42:41;8.60;99.90
1461;DHT22;724;49.910;12.530;2023-06-14T03:45:08;8.50;99.90
1461;DHT22;724;49.910;12.530;2023-06-14T03:47:36;8.60;99.90
1461;DHT22;724;49.910;12.530;2023-06-14T03:50:03;8.70;99.90
1461;DHT22;724;49.910;12.530;2023-06-14T03:52:30;8.80;99.90
1461;DHT22;724;49.910;12.530;2023-06-14T03:54:58;8.70;60.80
1461;DHT22;724;49.910;12.530;2023-06-14T03:57:26;8.80;55.50
1461;DHT22;724;49.910;12.530;2023-06-14T03:59:54;8.90;42.80
1461;DHT22;724;49.910;12.530;2023-06-14T04:02:20;8.90;50.00
1461;DHT22;724;49.910;12.530;2023-06-14T04:04:48;8.90;61.10
1461;DHT22;724;49.910;12.530;2023-06-14T04:07:15;9.00;77.50
1461;DHT22;724;49.910;12.530;2023-06-14T04:09:45;9.10;99.90
1461;DHT22;724;49.910;12.530;2023-06-14T04:12:12;9.00;99.90
1461;DHT22;724;49.910;12.530;2023-06-14T04:14:39;9.10;99.90
1461;DHT22;724;49.910;12.530;2023-06-14T04:17:07;9.10;99.90
1461;DHT22;724;49.910;12.530;2023-06-14T04:19:34;9.20;99.90
1461;DHT22;724;49.910;12.530;2023-06-14T04:22:01;9.30;99.90
1461;DHT22;724;49.910;12.530;2023-06-14T04:24:28;9.30;74.80
1461;DHT22;724;49.910;12.530;2023-06-14T04:26:58;9.30;90.40
1461;DHT22;724;49.910;12.530;2023-06-14T04:29:26;9.30;93.70
1461;DHT22;724;49.910;12.530;2023-06-14T04:31:55;9.40;61.50
1461;DHT22;724;49.910;12.530;2023-06-14T04:34:25;9.30;97.90
1461;DHT22;724;49.910;12.530;2023-06-14T04:36:55;9.40;78.90
1461;DHT22;724;49.910;12.530;2023-06-14T04:39:23;9.50;52.30
1461;DHT22;724;49.910;12.530;2023-06-14T04:41:50;9.40;99.90
1461;DHT22;724;49.910;12.530;2023-06-14T04:44:22;9.60;99.90
1461;DHT22;724;49.910;12.530;2023-06-14T04:46:55;9.80;99.90
1461;DHT22;724;49.910;12.530;2023-06-14T04:49:22;10.00;99.90
1461;DHT22;724;49.910;12.530;2023-06-14T04:51:50;10.30;99.90
1461;DHT22;724;49.910;12.530;2023-06-14T04:54:22;10.40;68.90
1461;DHT22;724;49.910;12.530;2023-06-14T04:56:50;10.60;1.00
1461;DHT22;724;49.910;12.530;2023-06-14T04:59:17;10.70;1.00
1461;DHT22;724;49.910;12.530;2023-06-14T05:01:44;10.90;1.00
1461;DHT22;724;49.910;12.530;2023-06-14T05:04:13;11.10;1.00
1461;DHT22;724;49.910;12.530;2023-06-14T05:06:40;11.20;1.00
1461;DHT22;724;49.910;12.530;2023-06-14T05:09:09;11.30;1.00
1461;DHT22;724;49.910;12.530;2023-06-14T05:11:35;11.40;1.00
1461;DHT22;724;49.910;12.530;2023-06-14T05:14:02;11.40;1.00
1461;DHT22;724;49.910;12.530;2023-06-14T05:16:29;11.40;1.00
1461;DHT22;724;49.910;12.530;2023-06-14T05:18:56;11.50;1.00
1461;DHT22;724;49.910;12.530;2023-06-14T05:21:23;11.70;1.00
1461;DHT22;724;49.910;12.530;2023-06-14T05:23:50;11.90;1.00
1461;DHT22;724;49.910;12.530;2023-06-14T05:26:19;12.30;1.00
1461;DHT22;724;49.910;12.530;2023-06-14T05:28:45;12.50;1.00
1461;DHT22;724;49.910;12.530;2023-06-14T05:31:12;12.40;1.00
1461;DHT22;724;49.910;12.530;2023-06-14T05:33:39;12.40;1.00
1461;DHT22;724;49.910;12.530;2023-06-14T05:36:07;12.10;1.00
1461;DHT22;724;49.910;12.530;2023-06-14T05:38:34;12.20;1.00
1461;DHT22;724;49.910;12.530;2023-06-14T05:41:01;12.30;1.00
1461;DHT22;724;49.910;12.530;2023-06-14T05:43:36;12.40;1.00
1461;DHT22;724;49.910;12.530;2023-06-14T05:46:05;13.00;1.00
1461;DHT22;724;49.910;12.530;2023-06-14T05:48:34;13.40;1.00
1461;DHT22;724;49.910;12.530;2023-06-14T05:51:02;13.00;1.00
1461;DHT22;724;49.910;12.530;2023-06-14T05:53:31;13.40;1.00
1461;DHT22;724;49.910;12.530;2023-06-14T05:56:01;13.30;1.00
1461;DHT22;724;49.910;12.530;2023-06-14T05:58:32;13.60;1.00
1461;DHT22;724;49.910;12.530;2023-06-14T06:01:05;14.00;1.00
1461;DHT22;724;49.910;12.530;2023-06-14T06:03:35;13.50;1.00
1461;DHT22;724;49.910;12.530;2023-06-14T06:06:02;14.00;1.00
1461;DHT22;724;49.910;12.530;2023-06-14T06:08:29;14.70;99.90
1461;DHT22;724;49.910;12.530;2023-06-14T06:10:56;14.60;99.90
1461;DHT22;724;49.910;12.530;2023-06-14T06:13:23;15.20;99.90
1461;DHT22;724;49.910;12.530;2023-06-14T06:15:51;15.60;99.90
1461;DHT22;724;49.910;12.530;2023-06-14T06:18:18;15.40;99.90
1461;DHT22;724;49.910;12.530;2023-06-14T06:20:45;15.70;99.90
1461;DHT22;724;49.910;12.530;2023-06-14T06:23:12;16.50;99.90
1461;DHT22;724;49.910;12.530;2023-06-14T06:25:40;16.70;99.90
1461;DHT22;724;49.910;12.530;2023-06-14T06:28:06;16.40;99.90
1461;DHT22;724;49.910;12.530;2023-06-14T06:30:33;15.70;99.90
1461;DHT22;724;49.910;12.530;2023-06-14T06:33:02;15.90;99.90
1461;DHT22;724;49.910;12.530;2023-06-14T06:35:30;16.30;99.90
1461;DHT22;724;49.910;12.530;2023-06-14T06:37:58;15.60;99.90
1461;DHT22;724;49.910;12.530;2023-06-14T06:40:28;15.20;99.90
1461;DHT22;724;49.910;12.530;2023-06-14T06:42:55;15.40;99.90
1461;DHT22;724;49.910;12.530;2023-06-14T06:45:22;16.10;99.90
1461;DHT22;724;49.910;12.530;2023-06-14T06:47:56;15.30;99.90
1461;DHT22;724;49.910;12.530;2023-06-14T06:50:24;14.50;99.90
1461;DHT22;724;49.910;12.530;2023-06-14T06:52:51;15.20;99.90
1461;DHT22;724;49.910;12.530;2023-06-14T06:55:18;15.00;99.90
1461;DHT22;724;49.910;12.530;2023-06-14T06:57:45;16.10;99.90
1461;DHT22;724;49.910;12.530;2023-06-14T07:00:12;16.90;99.90
1461;DHT22;724;49.910;12.530;2023-06-14T07:02:39;15.50;99.90
1461;DHT22;724;49.910;12.530;2023-06-14T07:05:06;17.00;99.90
1461;DHT22;724;49.910;12.530;2023-06-14T07:07:34;16.20;99.90
1461;DHT22;724;49.910;12.530;2023-06-14T07:10:01;16.10;99.90
1461;DHT22;724;49.910;12.530;2023-06-14T07:12:30;16.50;99.90
1461;DHT22;724;49.910;12.530;2023-06-14T07:14:57;17.80;99.90
1461;DHT22;724;49.910;12.530;2023-06-14T07:17:23;18.20;99.90
1461;DHT22;724;49.910;12.530;2023-06-14T07:19:50;17.00;99.90
1461;DHT22;724;49.910;12.530;2023-06-14T07:22:18;16.80;99.90
1461;DHT22;724;49.910;12.530;2023-06-14T07:24:47;16.70;99.90
1461;DHT22;724;49.910;12.530;2023-06-14T07:27:13;17.00;99.90
1461;DHT22;724;49.910;12.530;2023-06-14T07:29:40;16.90;99.90
1461;DHT22;724;49.910;12.530;2023-06-14T07:32:07;17.20;99.90
1461;DHT22;724;49.910;12.530;2023-06-14T07:34:34;17.40;99.90
1461;DHT22;724;49.910;12.530;2023-06-14T07:37:01;16.40;99.90
1461;DHT22;724;49.910;12.530;2023-06-14T07:39:27;16.60;99.90
1461;DHT22;724;49.910;12.530;2023-06-14T07:41:57;17.50;99.90
1461;DHT22;724;49.910;12.530;2023-06-14T07:44:23;17.50;99.90
1461;DHT22;724;49.910;12.530;2023-06-14T07:46:50;16.30;99.90
1461;DHT22;724;49.910;12.530;2023-06-14T07:49:17;17.70;99.90
1461;DHT22;724;49.910;12.530;2023-06-14T07:51:44;17.70;99.90
1461;DHT22;724;49.910;12.530;2023-06-14T07:54:12;17.10;99.90
1461;DHT22;724;49.910;12.530;2023-06-14T07:56:39;16.10;92.70
1461;DHT22;724;49.910;12.530;2023-06-14T07:59:10;16.40;99.90
1461;DHT22;724;49.910;12.530;2023-06-14T08:01:37;17.60;99.90
1461;DHT22;724;49.910;12.530;2023-06-14T08:04:06;17.10;94.30
1461;DHT22;724;49.910;12.530;2023-06-14T08:06:34;17.80;99.90
1461;DHT22;724;49.910;12.530;2023-06-14T08:09:02;17.80;98.00
1461;DHT22;724;49.910;12.530;2023-06-14T08:11:30;17.80;93.50
1461;DHT22;724;49.910;12.530;2023-06-14T08:13:57;18.10;92.40
1461;DHT22;724;49.910;12.530;2023-06-14T08:16:25;17.60;65.60
1461;DHT22;724;49.910;12.530;2023-06-14T08:18:51;17.60;56.60
1461;DHT22;724;49.910;12.530;2023-06-14T08:21:18;18.10;52.00
1461;DHT22;724;49.910;12.530;2023-06-14T08:23:45;17.60;41.50
1461;DHT22;724;49.910;12.530;2023-06-14T08:26:13;18.10;43.40
1461;DHT22;724;49.910;12.530;2023-06-14T08:28:41;16.80;21.90
1461;DHT22;724;49.910;12.530;2023-06-14T08:31:08;16.90;28.90
1461;DHT22;724;49.910;12.530;2023-06-14T08:33:37;17.40;32.50
1461;DHT22;724;49.910;12.530;2023-06-14T08:36:05;18.30;41.90
1461;DHT22;724;49.910;12.530;2023-06-14T08:38:32;18.70;39.80
1461;DHT22;724;49.910;12.530;2023-06-14T08:41:01;19.70;55.40
1461;DHT22;724;49.910;12.530;2023-06-14T08:43:29;19.50;24.00
1461;DHT22;724;49.910;12.530;2023-06-14T08:45:58;19.90;30.00
1461;DHT22;724;49.910;12.530;2023-06-14T08:48:27;18.90;1.00
1461;DHT22;724;49.910;12.530;2023-06-14T08:50:56;18.30;1.00
1461;DHT22;724;49.910;12.530;2023-06-14T08:53:28;19.60;3.00
1461;DHT22;724;49.910;12.530;2023-06-14T08:55:57;19.30;1.00
1461;DHT22;724;49.910;12.530;2023-06-14T08:58:27;19.30;1.00
1461;DHT22;724;49.910;12.530;2023-06-14T09:00:55;19.70;1.00
1461;DHT22;724;49.910;12.530;2023-06-14T09:03:21;19.30;1.00
1461;DHT22;724;49.910;12.530;2023-06-14T09:05:58;19.20;1.00
1461;DHT22;724;49.910;12.530;2023-06-14T09:08:26;19.50;1.00
1461;DHT22;724;49.910;12.530;2023-06-14T09:10:57;18.70;1.00
1461;DHT22;724;49.910;12.530;2023-06-14T09:13:24;18.30;1.00
1461;DHT22;724;49.910;12.530;2023-06-14T09:15:52;19.10;1.00
1461;DHT22;724;49.910;12.530;2023-06-14T09:18:19;20.00;1.00
1461;DHT22;724;49.910;12.530;2023-06-14T09:20:46;20.70;1.00
1461;DHT22;724;49.910;12.530;2023-06-14T09:23:20;20.00;1.00
1461;DHT22;724;49.910;12.530;2023-06-14T09:25:47;19.00;1.00
1461;DHT22;724;49.910;12.530;2023-06-14T09:28:15;20.20;1.00
1461;DHT22;724;49.910;12.530;2023-06-14T09:30:42;20.10;1.00
1461;DHT22;724;49.910;12.530;2023-06-14T09:33:09;18.20;1.00
1461;DHT22;724;49.910;12.530;2023-06-14T09:35:38;18.20;1.00
1461;DHT22;724;49.910;12.530;2023-06-14T09:38:07;17.90;1.00
1461;DHT22;724;49.910;12.530;2023-06-14T09:40:36;18.10;1.00
1461;DHT22;724;49.910;12.530;2023-06-14T09:43:06;17.70;1.00
1461;DHT22;724;49.910;12.530;2023-06-14T09:45:35;18.00;1.00
1461;DHT22;724;49.910;12.530;2023-06-14T09:48:02;18.00;1.00
1461;DHT22;724;49.910;12.530;2023-06-14T09:50:30;18.50;1.00
1461;DHT22;724;49.910;12.530;2023-06-14T09:53:02;18.70;1.00
1461;DHT22;724;49.910;12.530;2023-06-14T09:55:30;18.20;1.00
1461;DHT22;724;49.910;12.530;2023-06-14T09:58:04;18.10;1.00
1461;DHT22;724;49.910;12.530;2023-06-14T10:00:32;18.60;1.00
1461;DHT22;724;49.910;12.530;2023-06-14T10:03:03;19.30;1.00
1461;DHT22;724;49.910;12.530;2023-06-14T10:05:35;19.50;1.00
1461;DHT22;724;49.910;12.530;2023-06-14T10:08:07;20.30;1.00
1461;DHT22;724;49.910;12.530;2023-06-14T10:10:34;20.30;1.00
1461;DHT22;724;49.910;12.530;2023-06-14T10:13:02;19.60;1.00
1461;DHT22;724;49.910;12.530;2023-06-14T10:15:34;18.50;1.00
1461;DHT22;724;49.910;12.530;2023-06-14T10:18:08;18.80;1.00
1461;DHT22;724;49.910;12.530;2023-06-14T10:20:44;19.10;1.00
1461;DHT22;724;49.910;12.530;2023-06-14T10:23:17;18.60;1.00
1461;DHT22;724;49.910;12.530;2023-06-14T10:25:50;20.00;1.00
1461;DHT22;724;49.910;12.530;2023-06-14T10:28:19;20.30;1.00
1461;DHT22;724;49.910;12.530;2023-06-14T10:31:15;20.50;1.00
1461;DHT22;724;49.910;12.530;2023-06-14T10:33:49;20.30;1.00
1461;DHT22;724;49.910;12.530;2023-06-14T10:36:27;20.30;1.00
1461;DHT22;724;49.910;12.530;2023-06-14T10:39:01;19.60;1.00
1461;DHT22;724;49.910;12.530;2023-06-14T10:41:29;18.90;1.00
1461;DHT22;724;49.910;12.530;2023-06-14T10:47:28;19.30;1.00
1461;DHT22;724;49.910;12.530;2023-06-14T10:50:02;18.70;1.00
1461;DHT22;724;49.910;12.530;2023-06-14T10:52:31;19.80;1.00
1461;DHT22;724;49.910;12.530;2023-06-14T10:55:09;19.80;1.00
1461;DHT22;724;49.910;12.530;2023-06-14T10:57:38;18.40;1.00
1461;DHT22;724;49.910;12.530;2023-06-14T11:00:06;18.40;1.00
1461;DHT22;724;49.910;12.530;2023-06-14T11:05:55;18.50;1.00
1461;DHT22;724;49.910;12.530;2023-06-14T11:08:40;18.80;1.00
1461;DHT22;724;49.910;12.530;2023-06-14T11:11:13;19.10;1.00
1461;DHT22;724;49.910;12.530;2023-06-14T11:13:44;19.20;1.00
1461;DHT22;724;49.910;12.530;2023-06-14T11:16:11;19.30;1.00
1461;DHT22;724;49.910;12.530;2023-06-14T11:18:39;19.30;1.00
1461;DHT22;724;49.910;12.530;2023-06-14T11:21:07;19.40;1.00
1461;DHT22;724;49.910;12.530;2023-06-14T11:23:35;19.10;1.00
1461;DHT22;724;49.910;12.530;2023-06-14T11:26:02;19.40;1.00
1461;DHT22;724;49.910;12.530;2023-06-14T11:28:37;19.60;1.00
1461;DHT22;724;49.910;12.530;2023-06-14T11:31:04;20.40;1.00
1461;DHT22;724;49.910;12.530;2023-06-14T11:33:30;20.60;1.00
1461;DHT22;724;49.910;12.530;2023-06-14T11:35:57;21.40;1.00
1461;DHT22;724;49.910;12.530;2023-06-14T11:38:26;21.50;1.00
1461;DHT22;724;49.910;12.530;2023-06-14T11:40:53;20.50;1.00
1461;DHT22;724;49.910;12.530;2023-06-14T11:43:25;20.60;1.00
1461;DHT22;724;49.910;12.530;2023-06-14T11:45:54;21.70;1.00
1461;DHT22;724;49.910;12.530;2023-06-14T11:48:21;21.10;1.00
1461;DHT22;724;49.910;12.530;2023-06-14T11:50:50;20.90;1.00
1461;DHT22;724;49.910;12.530;2023-06-14T11:53:17;20.60;1.00
1461;DHT22;724;49.910;12.530;2023-06-14T11:55:45;20.40;1.00
1461;DHT22;724;49.910;12.530;2023-06-14T11:58:13;20.40;1.00
1461;DHT22;724;49.910;12.530;2023-06-14T12:00:41;20.10;1.00
1461;DHT22;724;49.910;12.530;2023-06-14T12:03:10;20.40;1.00
1461;DHT22;724;49.910;12.530;2023-06-14T12:05:41;21.60;1.00
1461;DHT22;724;49.910;12.530;2023-06-14T12:08:09;21.10;1.00
1461;DHT22;724;49.910;12.530;2023-06-14T12:10:43;20.20;1.00
1461;DHT22;724;49.910;12.530;2023-06-14T12:13:11;20.00;1.00
1461;DHT22;724;49.910;12.530;2023-06-14T12:15:38;21.00;1.00
1461;DHT22;724;49.910;12.530;2023-06-14T12:18:05;21.60;1.00
1461;DHT22;724;49.910;12.530;2023-06-14T12:20:34;21.40;1.00
1461;DHT22;724;49.910;12.530;2023-06-14T12:23:03;21.30;1.00
1461;DHT22;724;49.910;12.530;2023-06-14T12:25:31;21.10;1.00
1461;DHT22;724;49.910;12.530;2023-06-14T12:27:59;21.00;1.00
1461;DHT22;724;49.910;12.530;2023-06-14T12:30:27;20.70;1.00
1461;DHT22;724;49.910;12.530;2023-06-14T12:32:54;20.80;1.00
1461;DHT22;724;49.910;12.530;2023-06-14T12:35:21;21.00;1.00
1461;DHT22;724;49.910;12.530;2023-06-14T12:37:48;21.00;1.00
1461;DHT22;724;49.910;12.530;2023-06-14T12:40:14;21.70;1.00
1461;DHT22;724;49.910;12.530;2023-06-14T12:42:41;22.30;1.00
1461;DHT22;724;49.910;12.530;2023-06-14T12:45:09;22.40;1.00
1461;DHT22;724;49.910;12.530;2023-06-14T12:47:37;22.40;1.00
1461;DHT22;724;49.910;12.530;2023-06-14T12:50:05;21.60;1.00
1461;DHT22;724;49.910;12.530;2023-06-14T12:52:32;21.10;1.00
1461;DHT22;724;49.910;12.530;2023-06-14T12:55:03;21.10;1.00
1461;DHT22;724;49.910;12.530;2023-06-14T12:57:30;21.40;1.00
1461;DHT22;724;49.910;12.530;2023-06-14T12:59:56;21.60;1.00
1461;DHT22;724;49.910;12.530;2023-06-14T13:02:23;21.40;1.00
1461;DHT22;724;49.910;12.530;2023-06-14T13:04:52;21.30;1.00
1461;DHT22;724;49.910;12.530;2023-06-14T13:07:19;21.00;1.00
1461;DHT22;724;49.910;12.530;2023-06-14T13:09:46;21.70;1.00
1461;DHT22;724;49.910;12.530;2023-06-14T13:12:12;21.70;1.00
1461;DHT22;724;49.910;12.530;2023-06-14T13:14:40;22.40;1.00
1461;DHT22;724;49.910;12.530;2023-06-14T13:17:08;23.10;1.00
1461;DHT22;724;49.910;12.530;2023-06-14T13:19:35;22.40;1.00
1461;DHT22;724;49.910;12.530;2023-06-14T13:22:03;20.30;1.00
1461;DHT22;724;49.910;12.530;2023-06-14T13:24:30;19.80;1.00
1461;DHT22;724;49.910;12.530;2023-06-14T13:26:58;19.80;1.00
1461;DHT22;724;49.910;12.530;2023-06-14T13:29:25;20.10;1.00
1461;DHT22;724;49.910;12.530;2023-06-14T13:31:53;20.20;1.00
1461;DHT22;724;49.910;12.530;2023-06-14T13:34:20;20.30;1.00
1461;DHT22;724;49.910;12.530;2023-06-14T13:36:48;20.40;1.00
1461;DHT22;724;49.910;12.530;2023-06-14T13:39:16;20.40;1.00
1461;DHT22;724;49.910;12.530;2023-06-14T13:41:43;20.10;1.00
1461;DHT22;724;49.910;12.530;2023-06-14T13:44:10;19.60;1.00
1461;DHT22;724;49.910;12.530;2023-06-14T13:46:39;20.00;1.00
1461;DHT22;724;49.910;12.530;2023-06-14T13:49:07;20.80;1.00
1461;DHT22;724;49.910;12.530;2023-06-14T13:51:35;20.90;1.00
1461;DHT22;724;49.910;12.530;2023-06-14T13:54:02;21.60;1.00
1461;DHT22;724;49.910;12.530;2023-06-14T13:56:30;21.10;1.00
1461;DHT22;724;49.910;12.530;2023-06-14T13:58:57;22.00;1.00
1461;DHT22;724;49.910;12.530;2023-06-14T14:01:25;22.30;1.00
1461;DHT22;724;49.910;12.530;2023-06-14T14:03:54;22.20;1.00
1461;DHT22;724;49.910;12.530;2023-06-14T14:06:22;21.40;1.00
1461;DHT22;724;49.910;12.530;2023-06-14T14:08:49;20.60;1.00
1461;DHT22;724;49.910;12.530;2023-06-14T14:11:19;19.70;1.00
1461;DHT22;724;49.910;12.530;2023-06-14T14:13:47;20.70;1.00
1461;DHT22;724;49.910;12.530;2023-06-14T14:16:15;21.10;1.00
1461;DHT22;724;49.910;12.530;2023-06-14T14:18:45;21.40;1.00
1461;DHT22;724;49.910;12.530;2023-06-14T14:21:12;21.80;1.00
1461;DHT22;724;49.910;12.530;2023-06-14T14:23:39;22.30;1.00
1461;DHT22;724;49.910;12.530;2023-06-14T14:26:08;21.80;1.00
1461;DHT22;724;49.910;12.530;2023-06-14T14:28:35;21.00;1.00
1461;DHT22;724;49.910;12.530;2023-06-14T14:31:03;20.30;1.00
1461;DHT22;724;49.910;12.530;2023-06-14T14:33:30;20.10;1.00
1461;DHT22;724;49.910;12.530;2023-06-14T14:35:56;20.30;1.00
1461;DHT22;724;49.910;12.530;2023-06-14T14:38:23;20.10;1.00
1461;DHT22;724;49.910;12.530;2023-06-14T14:40:50;20.40;1.00
1461;DHT22;724;49.910;12.530;2023-06-14T14:43:16;20.80;1.00
1461;DHT22;724;49.910;12.530;2023-06-14T14:45:43;20.80;1.00
1461;DHT22;724;49.910;12.530;2023-06-14T14:48:14;20.50;1.00
1461;DHT22;724;49.910;12.530;2023-06-14T14:50:40;20.80;1.00
1461;DHT22;724;49.910;12.530;2023-06-14T14:53:07;21.00;1.00
1461;DHT22;724;49.910;12.530;2023-06-14T14:55:34;21.50;1.00
1461;DHT22;724;49.910;12.530;2023-06-14T14:58:02;21.70;1.00
1461;DHT22;724;49.910;12.530;2023-06-14T15:00:29;21.80;1.00
1461;DHT22;724;49.910;12.530;2023-06-14T15:02:56;20.70;1.00
1461;DHT22;724;49.910;12.530;2023-06-14T15:05:24;20.90;1.00
1461;DHT22;724;49.910;12.530;2023-06-14T15:07:54;21.10;1.00
1461;DHT22;724;49.910;12.530;2023-06-14T15:10:21;21.10;1.00
1461;DHT22;724;49.910;12.530;2023-06-14T15:15:16;20.40;1.00
1461;DHT22;724;49.910;12.530;2023-06-14T15:17:43;20.00;1.00
1461;DHT22;724;49.910;12.530;2023-06-14T15:20:10;20.40;1.00
1461;DHT22;724;49.910;12.530;2023-06-14T15:22:40;20.40;1.00
1461;DHT22;724;49.910;12.530;2023-06-14T15:25:07;20.60;1.00
1461;DHT22;724;49.910;12.530;2023-06-14T15:27:34;20.40;1.00
1461;DHT22;724;49.910;12.530;2023-06-14T15:30:01;20.30;1.00
1461;DHT22;724;49.910;12.530;2023-06-14T15:32:28;20.80;1.00
1461;DHT22;724;49.910;12.530;2023-06-14T15:34:55;20.90;1.00
1461;DHT22;724;49.910;12.530;2023-06-14T15:37:22;21.30;1.00
1461;DHT22;724;49.910;12.530;2023-06-14T15:39:50;21.20;1.00
1461;DHT22;724;49.910;12.530;2023-06-14T15:42:17;20.10;1.00
1461;DHT22;724;49.910;12.530;2023-06-14T15:44:43;20.00;1.00
1461;DHT22;724;49.910;12.530;2023-06-14T15:47:12;19.70;1.00
1461;DHT22;724;49.910;12.530;2023-06-14T15:49:39;19.80;1.00
1461;DHT22;724;49.910;12.530;2023-06-14T15:52:07;19.80;1.00
1461;DHT22;724;49.910;12.530;2023-06-14T15:54:33;20.40;1.00
1461;DHT22;724;49.910;12.530;2023-06-14T15:57:02;20.50;1.00
1461;DHT22;724;49.910;12.530;2023-06-14T15:59:29;20.50;1.00
1461;DHT22;724;49.910;12.530;2023-06-14T16:01:55;19.50;1.00
1461;DHT22;724;49.910;12.530;2023-06-14T16:04:22;19.50;1.00
1461;DHT22;724;49.910;12.530;2023-06-14T16:06:49;19.50;1.00
1461;DHT22;724;49.910;12.530;2023-06-14T16:09:16;20.70;1.00
1461;DHT22;724;49.910;12.530;2023-06-14T16:11:42;20.60;1.00
1461;DHT22;724;49.910;12.530;2023-06-14T16:14:11;20.90;1.00
1461;DHT22;724;49.910;12.530;2023-06-14T16:16:37;20.70;1.00
1461;DHT22;724;49.910;12.530;2023-06-14T16:19:05;20.90;1.00
1461;DHT22;724;49.910;12.530;2023-06-14T16:21:31;20.70;1.00
1461;DHT22;724;49.910;12.530;2023-06-14T16:24:00;20.50;1.00
1461;DHT22;724;49.910;12.530;2023-06-14T16:26:27;20.20;1.00
1461;DHT22;724;49.910;12.530;2023-06-14T16:28:54;20.70;1.00